Mariano Acosta, Argentina
Current Conditions -  °F | °C
As of 4:00 AM on Friday 24 Oct 2014 (Local Time) from SAEZ Reporting Station
Broken Clouds Broken Clouds  
Wind Chill: 68°   Ceiling: 500
Heat Index: 68°   Visibility: 5mi
Dew Point: 63°   Wind: 9mph
Humidity: 83%   Direction: 140°SE
Pressure: 29.97"   Gusts: NA
Location:  34.72°S, 58.8°W
Report Text: SAEZ 240700Z 14008KT 8000 BKN005 20/17 Q1015
Loading
Personal Weather Stations






























Interactive Weather Map
Tropical Storm Tracking
New forecast layout! Learn more

10-Day Weather Forecast

Advertisements
Track Severe Weather on mobile